createdAt,value
2023-03-18T00:01:01.231Z,11.33
2023-03-18T00:02:03.845Z,10.86
2023-03-18T00:03:06.469Z,11.42
2023-03-18T00:04:08.667Z,11.31
2023-03-18T00:05:11.775Z,11.19
2023-03-18T00:06:16.645Z,11.54
2023-03-18T00:07:18.709Z,11.11
2023-03-18T00:08:20.840Z,10.56
2023-03-18T00:09:23.601Z,11.26
2023-03-18T00:10:25.598Z,12.25
2023-03-18T00:11:27.594Z,10.75
2023-03-18T00:12:29.711Z,10.45
2023-03-18T00:13:33.537Z,10.91
2023-03-18T00:14:37.204Z,10.54
2023-03-18T00:15:39.534Z,11.74
2023-03-18T00:16:41.778Z,10.22
2023-03-18T00:17:44.267Z,10.79
2023-03-18T00:18:46.671Z,11.49
2023-03-18T00:19:48.795Z,11.27
2023-03-18T00:20:51.001Z,10.86
2023-03-18T00:21:52.968Z,11.01
2023-03-18T00:22:55.291Z,10.41
2023-03-18T00:23:58.031Z,11.39
2023-03-18T00:25:00.119Z,11.82
2023-03-18T00:26:02.840Z,10.28
2023-03-18T00:27:05.082Z,11.03
2023-03-18T00:28:09.401Z,10.55
2023-03-18T00:29:11.525Z,11.55
2023-03-18T00:30:14.224Z,11.21
2023-03-18T00:31:18.268Z,10.93
2023-03-18T00:32:20.239Z,11.47
2023-03-18T00:33:22.462Z,9.93
2023-03-18T00:34:25.523Z,11.25
2023-03-18T00:35:28.049Z,9.99
2023-03-18T00:36:31.166Z,10.23
2023-03-18T00:37:33.370Z,10.56
2023-03-18T00:38:36.537Z,10.67
2023-03-18T00:39:38.436Z,10.89
2023-03-18T00:40:42.042Z,10.32
2023-03-18T00:41:43.912Z,11.43
2023-03-18T00:42:46.677Z,10.57
2023-03-18T00:43:49.184Z,10.80
2023-03-18T00:44:51.178Z,11.47
2023-03-18T00:45:53.039Z,10.96
2023-03-18T00:46:55.203Z,11.41
2023-03-18T00:47:57.210Z,11.83
2023-03-18T00:49:01.386Z,10.64
2023-03-18T00:50:05.042Z,11.18
2023-03-18T00:51:06.924Z,10.99
2023-03-18T00:52:09.105Z,10.39
2023-03-18T00:53:10.980Z,10.24
2023-03-18T00:54:14.126Z,10.87
2023-03-18T00:55:16.220Z,9.71
2023-03-18T00:56:20.071Z,10.54
2023-03-18T00:57:22.210Z,9.96
2023-03-18T00:58:25.185Z,10.15
2023-03-18T00:59:27.175Z,10.21
2023-03-18T01:00:30.140Z,10.27
2023-03-18T01:01:33.387Z,11.32
2023-03-18T01:02:35.264Z,11.13
2023-03-18T01:03:37.330Z,11.75
2023-03-18T01:04:39.328Z,10.73
2023-03-18T01:05:41.672Z,10.19
2023-03-18T01:06:43.659Z,11.11
2023-03-18T01:07:46.945Z,10.98
2023-03-18T01:08:50.070Z,11.93
2023-03-18T01:09:52.294Z,10.33
2023-03-18T01:10:54.524Z,11.21
2023-03-18T01:11:56.408Z,11.01
2023-03-18T01:12:58.300Z,10.84
2023-03-18T01:14:00.754Z,10.43
2023-03-18T01:15:03.635Z,10.77
2023-03-18T01:16:07.505Z,10.34
2023-03-18T01:17:10.102Z,10.33
2023-03-18T01:18:12.049Z,10.29
2023-03-18T01:19:14.405Z,10.29
2023-03-18T01:20:18.867Z,9.79
2023-03-18T01:21:21.265Z,10.19
2023-03-18T01:22:23.160Z,9.06
2023-03-18T01:23:25.375Z,9.95
2023-03-18T01:24:27.953Z,9.47
2023-03-18T01:25:30.239Z,10.05
2023-03-18T01:26:32.617Z,9.45
2023-03-18T01:27:35.318Z,9.33
2023-03-18T01:28:37.644Z,9.38
2023-03-18T01:29:39.659Z,10.15
2023-03-18T01:30:42.681Z,10.22
2023-03-18T01:31:44.725Z,9.38
2023-03-18T01:32:46.789Z,9.49
2023-03-18T01:33:48.899Z,9.93
2023-03-18T01:34:50.871Z,9.53
2023-03-18T01:35:56.224Z,9.84
2023-03-18T01:36:58.808Z,9.55
2023-03-18T01:39:03.171Z,9.89
2023-03-18T01:40:08.325Z,9.56
2023-03-18T01:41:11.547Z,9.99
2023-03-18T01:42:14.629Z,9.16
2023-03-18T01:43:21.590Z,10.44
2023-03-18T01:44:24.255Z,9.68
2023-03-18T01:45:30.565Z,9.83
2023-03-18T01:46:39.113Z,10.20
2023-03-18T01:47:41.641Z,9.64
2023-03-18T01:48:43.921Z,9.27
2023-03-18T01:49:48.880Z,9.88
2023-03-18T01:50:57.994Z,9.51
2023-03-18T01:52:15.760Z,9.36
2023-03-18T01:53:20.342Z,9.96
2023-03-18T01:54:25.107Z,8.91
2023-03-18T01:55:29.946Z,9.76
2023-03-18T01:56:34.865Z,9.63
2023-03-18T01:57:39.504Z,9.33
2023-03-18T01:58:45.004Z,9.08
2023-03-18T01:59:50.149Z,8.88
2023-03-18T02:00:55.965Z,8.90
2023-03-18T02:02:10.641Z,9.49
2023-03-18T02:03:12.573Z,9.23
2023-03-18T02:04:16.075Z,8.38
2023-03-18T02:05:21.607Z,9.78
2023-03-18T02:06:26.764Z,9.31
2023-03-18T02:07:31.620Z,9.11
2023-03-18T02:08:37.221Z,8.97
2023-03-18T02:09:39.414Z,8.54
2023-03-18T02:10:42.342Z,8.40
2023-03-18T02:11:47.004Z,7.23
2023-03-18T02:12:55.791Z,7.48
2023-03-18T02:13:59.913Z,7.84
2023-03-18T02:15:05.713Z,7.46
2023-03-18T02:18:34.716Z,6.31
2023-03-18T02:19:40.429Z,6.71
2023-03-18T02:21:14.710Z,6.48
2023-03-18T02:22:35.891Z,6.57
2023-03-18T02:24:09.195Z,6.42
2023-03-18T02:25:20.568Z,6.01
2023-03-18T02:26:26.452Z,6.43
2023-03-18T02:27:32.162Z,5.84
2023-03-18T02:28:36.719Z,6.05
2023-03-18T02:29:41.249Z,5.59
2023-03-18T02:30:46.707Z,6.67
2023-03-18T02:31:49.793Z,6.02
2023-03-18T02:32:54.437Z,6.41
2023-03-18T02:33:58.183Z,6.12
2023-03-18T02:35:03.853Z,6.07
2023-03-18T02:36:15.605Z,5.46
2023-03-18T02:37:17.538Z,5.88
2023-03-18T02:38:20.910Z,6.28
2023-03-18T02:39:23.158Z,5.82
2023-03-18T02:40:29.195Z,5.45
2023-03-18T02:41:34.942Z,5.47
2023-03-18T02:42:37.019Z,5.76
2023-03-18T02:43:39.084Z,6.48
2023-03-18T02:44:44.315Z,5.69
2023-03-18T02:45:55.864Z,5.46
2023-03-18T02:47:07.795Z,6.21
2023-03-18T02:48:13.970Z,5.74
2023-03-18T02:49:18.237Z,6.57
2023-03-18T02:50:20.533Z,6.14
2023-03-18T02:51:23.167Z,5.38
2023-03-18T02:52:25.062Z,5.61
2023-03-18T02:53:27.180Z,6.37
2023-03-18T02:54:31.013Z,5.57
2023-03-18T02:55:32.959Z,5.85
2023-03-18T02:56:37.359Z,6.37
2023-03-18T02:57:39.320Z,5.13
2023-03-18T02:58:42.584Z,6.01
2023-03-18T02:59:44.487Z,5.84
2023-03-18T03:00:46.873Z,5.90
2023-03-18T03:01:52.810Z,5.94
2023-03-18T03:02:56.451Z,5.95
2023-03-18T03:03:59.482Z,6.59
2023-03-18T03:05:01.625Z,6.16
2023-03-18T03:06:06.515Z,6.11
2023-03-18T03:07:08.769Z,5.73
2023-03-18T03:08:11.390Z,5.99
2023-03-18T03:09:15.696Z,6.28
2023-03-18T03:10:18.801Z,5.49
2023-03-18T03:11:21.724Z,6.06
2023-03-18T03:12:23.861Z,5.61
2023-03-18T03:13:26.683Z,5.54
2023-03-18T03:14:28.682Z,6.05
2023-03-18T03:15:30.620Z,5.66
2023-03-18T03:16:32.769Z,5.76
2023-03-18T03:17:36.371Z,6.83
2023-03-18T03:18:38.679Z,5.81
2023-03-18T03:19:41.335Z,6.25
2023-03-18T03:20:44.319Z,5.97
2023-03-18T03:21:46.248Z,6.19
2023-03-18T03:22:48.465Z,6.85
2023-03-18T03:23:50.729Z,5.77
2023-03-18T03:24:53.842Z,6.85
2023-03-18T03:25:55.856Z,6.30
2023-03-18T03:26:58.085Z,6.59
2023-03-18T03:28:01.116Z,6.67
2023-03-18T03:29:05.044Z,6.44
2023-03-18T03:30:10.148Z,6.57
2023-03-18T03:31:12.307Z,6.49
2023-03-18T03:32:14.674Z,6.71
2023-03-18T03:33:16.696Z,6.90
2023-03-18T03:34:18.564Z,6.31
2023-03-18T03:35:21.726Z,6.79
2023-03-18T03:36:24.113Z,6.83
2023-03-18T03:37:26.320Z,6.82
2023-03-18T03:38:28.218Z,7.36
2023-03-18T03:39:30.108Z,7.07
2023-03-18T03:40:33.368Z,7.07
2023-03-18T03:41:35.889Z,6.70
2023-03-18T03:42:39.003Z,6.45
2023-03-18T03:43:42.074Z,6.67
2023-03-18T03:44:45.165Z,6.78
2023-03-18T03:45:47.047Z,6.27
2023-03-18T03:46:49.808Z,6.73
2023-03-18T03:47:52.230Z,7.54
2023-03-18T03:48:55.330Z,6.76
2023-03-18T03:49:57.316Z,6.92
2023-03-18T03:51:01.374Z,6.71
2023-03-18T03:52:04.718Z,6.85
2023-03-18T03:53:06.925Z,6.71
2023-03-18T03:54:10.955Z,6.99
2023-03-18T03:55:16.072Z,7.05
2023-03-18T03:56:18.925Z,6.56
2023-03-18T03:57:21.762Z,6.70
2023-03-18T03:58:24.432Z,6.72
2023-03-18T03:59:26.351Z,7.57
2023-03-18T04:00:28.930Z,7.58
2023-03-18T04:01:31.104Z,6.35
2023-03-18T04:02:33.497Z,6.52
2023-03-18T04:03:36.994Z,6.26
2023-03-18T04:04:39.688Z,6.49
2023-03-18T04:05:41.701Z,5.97
2023-03-18T04:06:43.858Z,6.55
2023-03-18T04:07:47.867Z,6.91
2023-03-18T04:08:49.896Z,5.93
2023-03-18T04:09:52.610Z,6.08
2023-03-18T04:10:55.676Z,6.72
2023-03-18T04:11:57.597Z,6.69
2023-03-18T04:12:59.776Z,6.61
2023-03-18T04:14:01.698Z,6.82
2023-03-18T04:15:05.286Z,6.55
2023-03-18T04:16:07.696Z,6.76
2023-03-18T04:17:09.649Z,6.89
2023-03-18T04:18:11.672Z,6.09
2023-03-18T04:19:14.139Z,6.17
2023-03-18T04:20:17.467Z,6.14
2023-03-18T04:21:19.403Z,6.26
2023-03-18T04:22:21.229Z,5.96
2023-03-18T04:23:23.366Z,5.67
2023-03-18T04:24:25.237Z,5.95
2023-03-18T04:25:27.322Z,6.09
2023-03-18T04:26:29.941Z,6.33
2023-03-18T04:27:32.797Z,5.75
2023-03-18T04:28:34.960Z,5.56
2023-03-18T04:29:37.361Z,5.59
2023-03-18T04:30:39.918Z,5.55
2023-03-18T04:31:42.483Z,5.70
2023-03-18T04:32:44.570Z,5.61
2023-03-18T04:33:46.615Z,6.45
2023-03-18T04:34:49.334Z,5.69
2023-03-18T04:35:51.247Z,5.57
2023-03-18T04:36:53.901Z,5.99
2023-03-18T04:37:56.241Z,5.56
2023-03-18T04:38:58.128Z,5.47
2023-03-18T04:40:00.629Z,5.41
2023-03-18T04:41:04.466Z,5.15
2023-03-18T04:42:07.460Z,5.46
2023-03-18T04:43:09.394Z,5.21
2023-03-18T04:44:11.258Z,5.73
2023-03-18T04:45:14.680Z,5.60
2023-03-18T04:46:17.180Z,5.41
2023-03-18T04:47:19.084Z,5.30
2023-03-18T04:48:21.142Z,4.70
2023-03-18T04:49:23.181Z,5.30
2023-03-18T04:50:25.268Z,4.77
2023-03-18T04:51:27.163Z,5.17
2023-03-18T04:52:30.145Z,4.96
2023-03-18T04:53:32.146Z,5.26
2023-03-18T04:54:34.275Z,5.21
2023-03-18T04:55:37.379Z,5.10
2023-03-18T04:56:39.348Z,5.09
2023-03-18T04:57:42.283Z,5.09
2023-03-18T04:58:44.725Z,5.33
2023-03-18T04:59:46.737Z,4.65
2023-03-18T05:00:49.007Z,5.17
2023-03-18T05:01:52.003Z,4.81
2023-03-18T05:02:54.882Z,4.69
2023-03-18T05:03:58.895Z,5.33
2023-03-18T05:05:01.467Z,4.72
2023-03-18T05:06:03.980Z,4.65
2023-03-18T05:07:06.012Z,5.15
2023-03-18T05:08:07.926Z,5.15
2023-03-18T05:09:10.008Z,4.77
2023-03-18T05:10:12.684Z,4.65
2023-03-18T05:11:14.917Z,4.99
2023-03-18T05:12:16.801Z,4.51
2023-03-18T05:13:18.938Z,4.29
2023-03-18T05:14:20.828Z,4.50
2023-03-18T05:15:22.887Z,4.57
2023-03-18T05:16:24.984Z,4.33
2023-03-18T05:17:27.335Z,4.29
2023-03-18T05:18:29.515Z,3.73
2023-03-18T05:19:31.469Z,4.41
2023-03-18T05:20:34.004Z,3.59
2023-03-18T05:21:36.145Z,3.80
2023-03-18T05:22:38.478Z,4.33
2023-03-18T05:23:40.738Z,4.12
2023-03-18T05:24:43.878Z,4.08
2023-03-18T05:25:48.147Z,4.10
2023-03-18T05:26:50.238Z,4.16
2023-03-18T05:27:53.224Z,4.10
2023-03-18T05:28:55.323Z,4.14
2023-03-18T05:29:57.515Z,4.57
2023-03-18T05:30:59.793Z,4.03
2023-03-18T05:32:01.917Z,4.13
2023-03-18T05:33:05.209Z,4.34
2023-03-18T05:34:08.814Z,4.34
2023-03-18T05:35:11.497Z,3.75
2023-03-18T05:36:14.527Z,3.77
2023-03-18T05:37:18.533Z,3.72
2023-03-18T05:38:21.046Z,4.46
2023-03-18T05:39:23.083Z,4.45
2023-03-18T05:40:25.172Z,4.07
2023-03-18T05:41:27.080Z,3.66
2023-03-18T05:42:30.237Z,4.00
2023-03-18T05:43:32.368Z,3.90
2023-03-18T05:44:34.799Z,3.58
2023-03-18T05:45:40.065Z,3.84
2023-03-18T05:46:44.117Z,4.17
2023-03-18T05:47:46.208Z,3.38
2023-03-18T05:48:48.072Z,3.97
2023-03-18T05:49:50.099Z,3.48
2023-03-18T05:50:53.305Z,3.59
2023-03-18T05:51:55.417Z,3.88
2023-03-18T05:52:58.189Z,3.57
2023-03-18T05:54:00.254Z,3.63
2023-03-18T05:55:02.764Z,4.40
2023-03-18T05:56:05.841Z,3.73
2023-03-18T05:57:08.053Z,4.26
2023-03-18T05:58:10.221Z,3.55
2023-03-18T05:59:13.958Z,3.91
2023-03-18T06:00:17.389Z,3.50
2023-03-18T06:01:19.580Z,3.76
2023-03-18T06:02:21.634Z,3.83
2023-03-18T06:03:24.981Z,3.64
2023-03-18T06:04:27.402Z,3.71
2023-03-18T06:05:30.067Z,3.55
2023-03-18T06:06:34.965Z,4.29
2023-03-18T06:07:38.037Z,4.10
2023-03-18T06:08:39.966Z,3.85
2023-03-18T06:09:41.944Z,3.59
2023-03-18T06:10:43.948Z,4.24
2023-03-18T06:11:46.815Z,3.71
2023-03-18T06:12:49.517Z,3.73
2023-03-18T06:13:51.834Z,4.49
2023-03-18T06:14:54.727Z,3.43
2023-03-18T06:15:58.378Z,3.72
2023-03-18T06:17:01.199Z,4.09
2023-03-18T06:18:04.257Z,3.87
2023-03-18T06:19:07.080Z,4.14
2023-03-18T06:20:11.670Z,3.76
2023-03-18T06:21:13.997Z,4.00
2023-03-18T06:22:16.465Z,3.61
2023-03-18T06:23:19.507Z,4.27
2023-03-18T06:24:21.553Z,3.67
2023-03-18T06:25:23.827Z,3.99
2023-03-18T06:26:26.856Z,3.78
2023-03-18T06:27:29.259Z,4.13
2023-03-18T06:28:31.121Z,3.31
2023-03-18T06:29:33.116Z,3.91
2023-03-18T06:30:35.105Z,3.94
2023-03-18T06:31:36.993Z,3.85
2023-03-18T06:32:39.625Z,3.99
2023-03-18T06:33:41.701Z,4.34
2023-03-18T06:34:43.682Z,4.09
2023-03-18T06:35:47.813Z,3.53
2023-03-18T06:36:52.457Z,3.82
2023-03-18T06:37:54.380Z,4.32
2023-03-18T06:38:56.761Z,4.04
2023-03-18T06:39:58.770Z,4.12
2023-03-18T06:41:01.420Z,4.21
2023-03-18T06:42:03.532Z,3.59
2023-03-18T06:43:05.625Z,3.77
2023-03-18T06:44:07.493Z,3.89
2023-03-18T06:45:10.762Z,3.59
2023-03-18T06:46:13.602Z,4.14
2023-03-18T06:47:17.885Z,4.47
2023-03-18T06:48:20.408Z,3.94
2023-03-18T06:49:22.893Z,3.99
2023-03-18T06:50:24.886Z,3.96
2023-03-18T06:51:27.170Z,3.53
2023-03-18T06:52:29.860Z,3.89
2023-03-18T06:53:31.808Z,3.21
2023-03-18T06:54:33.705Z,3.90
2023-03-18T06:55:36.236Z,3.53
2023-03-18T06:56:38.229Z,3.17
2023-03-18T06:57:40.451Z,3.65
2023-03-18T06:58:45.414Z,4.06
2023-03-18T06:59:47.755Z,3.37
2023-03-18T07:00:50.193Z,3.43
2023-03-18T07:01:53.330Z,3.61
2023-03-18T07:02:55.527Z,3.44
2023-03-18T07:03:58.090Z,3.38
2023-03-18T07:05:00.293Z,3.22
2023-03-18T07:06:02.964Z,3.21
2023-03-18T07:07:08.194Z,3.12
2023-03-18T07:08:11.237Z,3.39
2023-03-18T07:09:14.933Z,3.73
2023-03-18T07:11:32.937Z,3.81
2023-03-18T07:12:35.453Z,3.17
2023-03-18T07:13:38.859Z,3.99
2023-03-18T07:14:41.019Z,3.41
2023-03-18T07:15:44.402Z,3.68
2023-03-18T07:16:46.848Z,3.76
2023-03-18T07:17:50.333Z,3.53
2023-03-18T07:18:52.279Z,3.39
2023-03-18T07:19:54.319Z,3.59
2023-03-18T07:20:56.443Z,3.31
2023-03-18T07:21:59.283Z,3.28
2023-03-18T07:23:01.406Z,3.50
2023-03-18T07:24:05.084Z,3.27
2023-03-18T07:25:07.880Z,3.31
2023-03-18T07:26:10.785Z,3.44
2023-03-18T07:27:12.947Z,3.95
2023-03-18T07:28:14.994Z,3.85
2023-03-18T07:29:17.588Z,3.13
2023-03-18T07:30:19.898Z,3.32
2023-03-18T07:31:21.931Z,3.84
2023-03-18T07:32:23.920Z,3.45
2023-03-18T07:33:25.996Z,3.29
2023-03-18T07:34:27.938Z,3.87
2023-03-18T07:35:29.970Z,3.85
2023-03-18T07:36:32.241Z,3.84
2023-03-18T07:37:34.207Z,3.89
2023-03-18T07:38:36.342Z,3.77
2023-03-18T07:39:38.204Z,3.46
2023-03-18T07:40:41.220Z,3.71
2023-03-18T07:41:43.103Z,3.86
2023-03-18T07:42:45.012Z,3.68
2023-03-18T07:43:46.870Z,3.95
2023-03-18T07:44:48.878Z,4.58
2023-03-18T07:45:50.913Z,3.89
2023-03-18T07:46:53.111Z,3.65
2023-03-18T07:47:55.168Z,3.29
2023-03-18T07:48:57.044Z,3.19
2023-03-18T07:49:59.011Z,3.30
2023-03-18T07:51:02.011Z,3.57
2023-03-18T07:52:04.384Z,3.59
2023-03-18T07:53:06.900Z,3.94
2023-03-18T07:54:09.765Z,3.64
2023-03-18T07:55:12.397Z,3.40
2023-03-18T07:56:14.988Z,3.46
2023-03-18T07:57:18.141Z,2.89
2023-03-18T07:58:20.427Z,3.19
2023-03-18T07:59:22.617Z,3.57
2023-03-18T08:00:24.946Z,3.54
2023-03-18T08:01:27.126Z,3.18
2023-03-18T08:02:29.009Z,3.34
2023-03-18T08:03:31.589Z,3.41
2023-03-18T08:04:34.134Z,3.18
2023-03-18T08:05:36.396Z,3.10
2023-03-18T08:06:38.392Z,3.09
2023-03-18T08:07:40.383Z,3.53
2023-03-18T08:08:42.876Z,3.28
2023-03-18T08:09:44.838Z,3.70
2023-03-18T08:10:46.902Z,3.34
2023-03-18T08:11:49.246Z,3.25
2023-03-18T08:12:53.813Z,3.03
2023-03-18T08:13:55.896Z,3.60
2023-03-18T08:14:57.792Z,3.49
2023-03-18T08:16:00.369Z,3.53
2023-03-18T08:17:03.123Z,3.33
2023-03-18T08:18:08.781Z,3.46
2023-03-18T08:19:10.350Z,3.33
2023-03-18T08:20:14.689Z,3.51
2023-03-18T08:21:17.070Z,3.30
2023-03-18T08:22:19.608Z,3.25
2023-03-18T08:23:22.878Z,3.25
2023-03-18T08:24:25.042Z,3.56
2023-03-18T08:25:27.018Z,3.07
2023-03-18T08:26:29.016Z,3.07
2023-03-18T08:27:32.129Z,2.97
2023-03-18T08:28:34.285Z,3.35
2023-03-18T08:29:36.285Z,3.49
2023-03-18T08:30:39.239Z,4.72
2023-03-18T08:31:41.650Z,4.33
2023-03-18T08:32:44.529Z,3.83
2023-03-18T08:33:47.783Z,3.32
2023-03-18T08:34:49.718Z,3.29
2023-03-18T08:35:52.654Z,3.18
2023-03-18T08:36:54.626Z,3.81
2023-03-18T08:37:56.537Z,2.99
2023-03-18T08:38:59.367Z,3.35
2023-03-18T08:40:01.806Z,3.16
2023-03-18T08:41:04.025Z,3.54
2023-03-18T08:42:06.856Z,3.40
2023-03-18T08:43:10.333Z,3.24
2023-03-18T08:44:12.431Z,3.02
2023-03-18T08:45:14.939Z,3.09
2023-03-18T08:46:18.433Z,3.01
2023-03-18T08:47:20.584Z,3.00
2023-03-18T08:48:23.791Z,3.45
2023-03-18T08:49:25.856Z,3.38
2023-03-18T08:50:28.078Z,3.69
2023-03-18T08:51:30.765Z,3.27
2023-03-18T08:52:32.651Z,3.98
2023-03-18T08:53:34.996Z,3.03
2023-03-18T08:54:36.890Z,3.09
2023-03-18T08:55:38.831Z,3.49
2023-03-18T08:56:40.855Z,3.35
2023-03-18T08:57:43.043Z,3.06
2023-03-18T08:58:45.156Z,2.97
2023-03-18T08:59:47.436Z,2.81
2023-03-18T09:00:49.615Z,3.05
2023-03-18T09:01:51.520Z,2.43
2023-03-18T09:02:53.905Z,2.75
2023-03-18T09:03:55.857Z,2.57
2023-03-18T09:04:57.891Z,2.65
2023-03-18T09:06:00.286Z,3.41
2023-03-18T09:07:02.828Z,3.15
2023-03-18T09:08:05.682Z,3.21
2023-03-18T09:09:08.481Z,3.17
2023-03-18T09:10:13.732Z,3.13
2023-03-18T09:11:17.387Z,2.71
2023-03-18T09:12:19.331Z,2.72
2023-03-18T09:13:22.326Z,2.56
2023-03-18T09:14:24.234Z,2.71
2023-03-18T09:15:26.263Z,2.81
2023-03-18T09:16:28.266Z,3.23
2023-03-18T09:17:45.251Z,3.09
2023-03-18T09:18:34.984Z,2.79
2023-03-18T09:19:36.934Z,2.76
2023-03-18T09:20:40.758Z,2.47
2023-03-18T09:21:42.672Z,2.88
2023-03-18T09:22:46.581Z,2.63
2023-03-18T09:23:48.531Z,2.59
2023-03-18T09:24:50.489Z,2.42
2023-03-18T09:25:52.600Z,2.81
2023-03-18T09:26:57.511Z,2.57
2023-03-18T09:28:00.012Z,2.82
2023-03-18T09:29:01.900Z,2.61
2023-03-18T09:30:06.902Z,2.43
2023-03-18T09:31:09.090Z,2.59
2023-03-18T09:32:11.009Z,2.85
2023-03-18T09:33:13.090Z,2.52
2023-03-18T09:34:15.066Z,2.69
2023-03-18T09:35:16.938Z,2.65
2023-03-18T09:36:18.981Z,2.57
2023-03-18T09:37:21.452Z,2.87
2023-03-18T09:38:23.798Z,2.72
2023-03-18T09:39:25.691Z,2.99
2023-03-18T09:40:30.812Z,2.95
2023-03-18T09:41:58.444Z,2.98
2023-03-18T09:43:25.627Z,2.89
2023-03-18T09:44:33.296Z,2.42
2023-03-18T09:45:39.083Z,3.55
2023-03-18T09:47:10.831Z,6.46
2023-03-18T09:48:36.184Z,2.63
2023-03-18T09:49:50.791Z,2.83
2023-03-18T09:51:11.203Z,2.66
2023-03-18T09:52:16.840Z,2.69
2023-03-18T09:53:42.449Z,3.03
2023-03-18T09:54:57.351Z,3.13
2023-03-18T09:56:02.114Z,3.03
2023-03-18T09:57:07.195Z,2.81
2023-03-18T09:59:38.299Z,2.77
2023-03-18T10:00:41.941Z,3.08
2023-03-18T10:01:48.632Z,2.74
2023-03-18T10:02:54.313Z,3.04
2023-03-18T10:04:11.849Z,2.62
2023-03-18T10:05:36.240Z,2.69
2023-03-18T10:06:42.369Z,3.08
2023-03-18T10:07:48.897Z,2.72
2023-03-18T10:09:16.549Z,2.92
2023-03-18T10:10:25.519Z,3.02
2023-03-18T10:11:37.347Z,3.28
2023-03-18T10:12:45.788Z,2.91
2023-03-18T10:14:00.754Z,2.86
2023-03-18T10:15:18.719Z,2.63
2023-03-18T10:16:24.586Z,3.03
2023-03-18T10:17:33.778Z,2.81
2023-03-18T10:18:39.055Z,2.48
2023-03-18T10:19:47.455Z,2.49
2023-03-18T10:20:59.302Z,2.17
2023-03-18T10:22:04.998Z,2.34
2023-03-18T10:23:26.428Z,2.30
2023-03-18T10:24:44.409Z,2.55
2023-03-18T10:28:48.894Z,2.18
2023-03-18T10:30:03.621Z,2.13
2023-03-18T10:31:24.124Z,2.40
2023-03-18T10:32:48.664Z,2.32
2023-03-18T10:33:43.111Z,2.34
2023-03-18T10:35:05.629Z,2.11
2023-03-18T10:36:23.160Z,2.14
2023-03-18T10:37:38.170Z,2.25
2023-03-18T10:38:52.243Z,2.49
2023-03-18T10:39:55.180Z,2.31
2023-03-18T10:40:58.649Z,2.56
2023-03-18T10:42:04.368Z,2.08
2023-03-18T10:44:35.050Z,2.74
2023-03-18T10:46:41.355Z,2.29
2023-03-18T10:47:52.947Z,2.23
2023-03-18T10:49:08.127Z,1.77
2023-03-18T10:50:20.263Z,1.98
2023-03-18T10:51:37.946Z,1.96
2023-03-18T10:52:46.727Z,2.16
2023-03-18T10:54:09.086Z,1.72
2023-03-18T10:55:15.240Z,2.04
2023-03-18T10:56:18.053Z,2.00
2023-03-18T10:57:21.292Z,1.85
2023-03-18T10:58:23.327Z,2.01
2023-03-18T10:59:27.577Z,2.03
2023-03-18T11:00:34.781Z,2.26
2023-03-18T11:01:39.115Z,2.06
2023-03-18T11:02:41.948Z,2.14
2023-03-18T11:03:50.563Z,2.05
2023-03-18T11:05:26.840Z,2.36
2023-03-18T11:06:59.353Z,2.02
2023-03-18T11:08:06.796Z,2.26
2023-03-18T11:09:12.239Z,2.45
2023-03-18T11:10:18.126Z,2.28
2023-03-18T11:11:29.904Z,2.23
2023-03-18T11:12:31.880Z,2.43
2023-03-18T11:13:33.796Z,2.41
2023-03-18T11:14:36.587Z,2.51
2023-03-18T11:15:42.263Z,2.16
2023-03-18T11:17:00.301Z,2.28
2023-03-18T11:18:03.164Z,2.43
2023-03-18T11:19:08.727Z,2.12
2023-03-18T11:20:23.997Z,2.29
2023-03-18T11:21:27.299Z,2.02
2023-03-18T11:22:30.192Z,2.15
2023-03-18T11:23:35.401Z,2.09
2023-03-18T11:24:38.528Z,2.29
2023-03-18T11:25:44.174Z,2.24
2023-03-18T11:26:50.175Z,1.81
2023-03-18T11:27:58.941Z,2.28
2023-03-18T11:29:13.443Z,2.13
2023-03-18T11:30:33.937Z,2.46
2023-03-18T11:31:30.281Z,2.47
2023-03-18T11:32:34.522Z,2.49
2023-03-18T11:33:36.569Z,2.50
2023-03-18T11:34:38.447Z,2.46
2023-03-18T11:35:46.865Z,2.44
2023-03-18T11:36:55.092Z,2.09
2023-03-18T11:38:00.791Z,2.11
2023-03-18T11:39:05.621Z,1.87
2023-03-18T11:40:17.867Z,2.06
2023-03-18T11:42:26.182Z,1.81
2023-03-18T11:43:28.081Z,1.95
2023-03-18T11:44:32.744Z,2.23
2023-03-18T11:45:56.137Z,2.12
2023-03-18T11:47:13.793Z,2.09
2023-03-18T11:48:26.764Z,1.99
2023-03-18T11:49:30.143Z,2.33
2023-03-18T11:50:41.736Z,2.08
2023-03-18T11:51:47.412Z,2.45
2023-03-18T11:53:04.963Z,1.77
2023-03-18T11:54:19.720Z,1.81
2023-03-18T11:55:43.453Z,1.89
2023-03-18T11:58:35.375Z,1.56
2023-03-18T11:59:57.803Z,1.68
2023-03-18T12:01:13.372Z,1.70
2023-03-18T12:02:54.389Z,1.83
2023-03-18T12:04:17.006Z,2.62
2023-03-18T12:05:44.294Z,1.73
2023-03-18T12:06:50.067Z,1.96
2023-03-18T12:07:58.534Z,2.01
2023-03-18T12:09:24.000Z,1.59
2023-03-18T12:10:29.870Z,1.65
2023-03-18T12:12:10.467Z,1.76
2023-03-18T12:13:21.903Z,1.76
2023-03-18T12:14:48.516Z,2.12
2023-03-18T12:16:06.463Z,1.92
2023-03-18T12:17:35.842Z,1.83
2023-03-18T12:18:53.456Z,2.00
2023-03-18T12:20:14.655Z,1.89
2023-03-18T12:21:51.746Z,2.13
2023-03-18T12:23:05.499Z,2.14
2023-03-18T12:24:23.686Z,1.88
2023-03-18T12:25:49.014Z,2.21
2023-03-18T12:26:57.310Z,2.01
2023-03-18T12:28:14.895Z,1.86
2023-03-18T12:29:29.608Z,2.06
2023-03-18T12:30:47.674Z,1.80
2023-03-18T12:31:53.463Z,1.83
2023-03-18T12:33:05.467Z,1.86
2023-03-18T12:35:49.938Z,2.22
2023-03-18T12:36:58.445Z,2.18
2023-03-18T12:38:09.952Z,1.83
2023-03-18T12:40:30.809Z,2.31
2023-03-18T12:41:39.825Z,1.99
2023-03-18T12:42:57.691Z,1.63
2023-03-18T12:44:06.087Z,2.16
2023-03-18T12:45:11.564Z,2.01
2023-03-18T12:46:35.720Z,1.99
2023-03-18T12:47:47.704Z,2.00
2023-03-18T12:48:53.408Z,2.13
2023-03-18T12:50:07.998Z,1.89
2023-03-18T12:51:16.475Z,2.29
2023-03-18T12:52:22.395Z,2.36
2023-03-18T12:53:30.976Z,2.68
2023-03-18T12:54:42.439Z,2.16
2023-03-18T12:56:55.151Z,1.81
2023-03-18T12:58:03.868Z,2.14
2023-03-18T12:59:09.583Z,2.05
2023-03-18T13:00:21.796Z,2.37
2023-03-18T13:01:37.000Z,2.17
2023-03-18T13:03:07.571Z,2.34
2023-03-18T13:04:16.533Z,2.12
2023-03-18T13:05:27.767Z,2.33
2023-03-18T13:07:49.397Z,2.17
2023-03-18T13:08:57.884Z,2.43
2023-03-18T13:10:09.789Z,2.34
2023-03-18T13:11:24.438Z,2.38
2023-03-18T13:12:36.152Z,2.71
2023-03-18T13:13:41.865Z,2.63
2023-03-18T13:14:53.757Z,1.89
2023-03-18T13:15:56.491Z,2.41
2023-03-18T13:17:00.308Z,2.45
2023-03-18T13:18:15.201Z,2.35
2023-03-18T13:19:17.277Z,2.41
2023-03-18T13:20:25.404Z,2.10
2023-03-18T13:21:31.368Z,2.14
2023-03-18T13:22:45.541Z,2.82
2023-03-18T13:23:51.274Z,2.27
2023-03-18T13:25:00.025Z,3.07
2023-03-18T13:26:23.984Z,2.89
2023-03-18T13:27:41.377Z,2.64
2023-03-18T13:28:50.071Z,2.21
2023-03-18T13:32:50.988Z,2.64
2023-03-18T13:34:09.128Z,2.09
2023-03-18T13:35:37.936Z,2.24
2023-03-18T13:37:00.912Z,2.48
2023-03-18T13:38:23.831Z,2.18
2023-03-18T13:39:56.571Z,2.14
2023-03-18T13:41:31.264Z,2.11
2023-03-18T13:42:35.797Z,2.36
2023-03-18T13:43:44.760Z,2.12
2023-03-18T13:45:14.717Z,2.17
2023-03-18T13:46:23.979Z,2.18
2023-03-18T13:47:29.376Z,2.17
2023-03-18T13:48:33.940Z,1.92
2023-03-18T13:49:39.386Z,2.31
2023-03-18T13:50:45.409Z,2.13
2023-03-18T13:51:56.906Z,2.38
2023-03-18T13:53:01.363Z,1.87
2023-03-18T13:54:07.032Z,1.80
2023-03-18T13:55:31.671Z,2.65
2023-03-18T13:56:43.636Z,2.19
2023-03-18T13:57:49.216Z,1.87
2023-03-18T13:58:51.287Z,2.43
2023-03-18T14:00:27.531Z,1.93
2023-03-18T14:01:32.799Z,2.28
2023-03-18T14:02:43.663Z,2.41
2023-03-18T14:03:49.394Z,2.02
2023-03-18T14:04:52.069Z,2.23
2023-03-18T14:06:24.642Z,2.33
2023-03-18T14:07:27.831Z,2.31
2023-03-18T14:08:41.576Z,2.11
2023-03-18T14:09:52.824Z,2.08
2023-03-18T14:12:30.766Z,2.27
2023-03-18T14:13:33.498Z,2.30
2023-03-18T14:14:45.588Z,2.40
2023-03-18T14:15:47.691Z,2.51
2023-03-18T14:16:52.331Z,2.00
2023-03-18T14:17:59.485Z,2.40
2023-03-18T14:19:05.289Z,2.07
2023-03-18T14:20:20.381Z,2.11
2023-03-18T14:21:28.403Z,1.93
2023-03-18T14:22:37.554Z,2.02
2023-03-18T14:23:43.730Z,1.98
2023-03-18T14:24:46.725Z,2.66
2023-03-18T14:25:49.900Z,2.53
2023-03-18T14:27:01.839Z,2.34
2023-03-18T14:28:11.073Z,2.87
2023-03-18T14:29:17.019Z,2.89
2023-03-18T14:30:38.308Z,2.66
2023-03-18T14:31:44.099Z,3.20
2023-03-18T14:32:58.573Z,3.02
2023-03-18T14:34:04.383Z,3.13
2023-03-18T14:35:22.139Z,2.52
2023-03-18T14:36:30.295Z,2.72
2023-03-18T14:37:33.181Z,2.85
2023-03-18T14:38:41.821Z,3.14
2023-03-18T14:39:47.398Z,3.12
2023-03-18T14:40:51.955Z,3.06
2023-03-18T14:41:57.103Z,3.26
2023-03-18T14:43:01.282Z,2.88
2023-03-18T14:44:09.995Z,2.86
2023-03-18T14:45:27.818Z,3.14
2023-03-18T14:46:35.294Z,3.16
2023-03-18T14:47:51.187Z,3.13
2023-03-18T14:48:53.403Z,2.98
2023-03-18T14:49:59.073Z,3.14
2023-03-18T14:52:20.896Z,2.73
2023-03-18T14:53:35.850Z,2.71
2023-03-18T14:54:41.507Z,2.74
2023-03-18T14:55:43.647Z,2.72
2023-03-18T14:56:55.163Z,2.70